Vernonia, OR

6:10 AM PDT on March 29, 2017 (GMT -0700)
Vernowhere Heights | | Change Station
Active Advisory: Flood Warning

Elev 635 ft 45.86 °N, 123.19 °W | Updated 18 seconds ago

Overcast
Overcast
44.8 °F
Feels Like 44 °F
N
3.2
Wind Variable Wind from East

Today
High -- | Low -- °F
--% Chance of Precip.
Yesterday
High -- | Low -- °F
Precip. -- in
Pressure 29.97 in
Visibility 9.0 miles
Clouds Overcast 1700 ft
Windchill 44 °F
Dew Point 44 °F
Humidity 99%
Rainfall 0.14 in
Snow Depth Not available.
6:57 AM 7:37 PM
Waxing Crescent, 3% visible
METAR KSPB 291253Z AUTO 14010KT 9SM -RA OVC017 09/07 A2997 RMK AO2 RAE08B34 SLP148 P0001 T00890072
Pressure 29.97 in
Visibility 9.0 miles
Clouds Overcast 1700 ft
Windchill 44 °F
Dew Point 44 °F
Humidity 99%
Rainfall 0.14 in
Snow Depth Not available.
6:57 AM 7:37 PM
Waxing Crescent, 3% visible
METAR KSPB 291253Z AUTO 14010KT 9SM -RA OVC017 09/07 A2997 RMK AO2 RAE08B34 SLP148 P0001 T00890072

Get Your Daily Forecast Email!

Thanks for signing up!

Be on the lookout for a verification email in your inbox.

You'll start receiving severe weather alerts in your inbox..

×

10-Day Weather Forecast

Almanac

Astronomy

Mar. 29, 2017 Rise Set
Actual Time
Civil Twilight
Nautical Twilight
Astronomical Twilight
Moon
Length of Visible Light
Length of Day
Tomorrow will be .
, % of the Moon is Illuminated

Today's Extremes

State Highs State Lows

Community

WunderPhotos

Upload Photos

1,962,540 photos uploaded!

WunderBlog® & News

Nearby

Air Quality

  Air Quality AQ Index Pollutant
Not available.

Snow Depth

Station Depth Elevation

Earthquake Activity

City Distance Mag. Time & Date
Minimum magnitude displayed is 2.5.

Earthquake Activity

City Distance Mag. Time & Date
Minimum magnitude displayed is 2.5.

Coastal Water Temperatures

Place Temperature

Stations

Nearby Weather Stations

Station Location Temp. Windchill Dew Point Humidity Wind Precip. Elev Updated Type
                   

Watches & Warnings

Flood Warning
Issued: 4:20 PM PDT Mar. 28, 2017 – National Weather Service

The Flood Warning continues for
the Columbia River at Longview.
* At 4 PM Tuesday the stage was... 12.9.
* Flood stage is 13.5 feet.
* Minor flooding is forecast.
* Forecast... this river will rise above flood stage during high tide
and peak between 13.5 and 13.8 feet each morning this week.
* Impact... above 13.5 ft, expect minor flooding of unleveed farmland
and low-lying area along the Columbia.


Lat... Lon 4602 12292 4604 12282 4618 12295 4618 12315 4609 12297